createdAt,value
2022-09-20T00:01:27.450Z,52.30
2022-09-20T00:03:53.885Z,52.00
2022-09-20T00:06:20.293Z,52.70
2022-09-20T00:08:46.681Z,51.90
2022-09-20T00:13:40.001Z,52.50
2022-09-20T00:16:06.457Z,51.70
2022-09-20T00:20:59.806Z,53.40
2022-09-20T00:23:26.205Z,52.00
2022-09-20T00:25:52.614Z,52.50
2022-09-20T00:28:19.010Z,52.30
2022-09-20T00:30:45.434Z,52.90
2022-09-20T00:33:11.825Z,52.00
2022-09-20T00:35:38.221Z,52.10
2022-09-20T00:38:04.626Z,53.20
2022-09-20T00:40:31.059Z,52.30
2022-09-20T00:42:57.485Z,52.10
2022-09-20T00:45:23.890Z,52.30
2022-09-20T00:50:17.205Z,53.30
2022-09-20T00:52:43.614Z,52.10
2022-09-20T00:55:10.033Z,52.10
2022-09-20T00:57:36.448Z,53.60
2022-09-20T01:02:29.790Z,52.40
2022-09-20T01:04:56.237Z,52.30
2022-09-20T01:07:22.645Z,52.00
2022-09-20T01:09:49.036Z,52.20
2022-09-20T01:12:15.437Z,52.00
2022-09-20T01:14:41.835Z,52.10
2022-09-20T01:17:08.242Z,51.90
2022-09-20T01:19:34.629Z,51.90
2022-09-20T01:22:01.040Z,51.70
2022-09-20T01:24:27.433Z,52.00
2022-09-20T01:26:53.824Z,51.60
2022-09-20T01:29:20.270Z,51.80
2022-09-20T01:31:46.731Z,52.10
2022-09-20T01:34:13.193Z,52.10
2022-09-20T01:36:39.613Z,51.80
2022-09-20T01:41:32.936Z,51.90
2022-09-20T01:43:59.344Z,53.80
2022-09-20T01:46:25.764Z,52.10
2022-09-20T01:48:52.218Z,51.60
2022-09-20T01:53:45.520Z,51.50
2022-09-20T01:56:11.969Z,51.90
2022-09-20T01:58:38.369Z,51.90
2022-09-20T02:01:04.860Z,51.90
2022-09-20T02:05:58.157Z,51.40
2022-09-20T02:08:24.570Z,51.60
2022-09-20T02:10:50.978Z,51.40
2022-09-20T02:13:17.394Z,51.50
2022-09-20T02:15:43.796Z,51.70
2022-09-20T02:18:10.208Z,51.70
2022-09-20T02:20:36.604Z,52.00
2022-09-20T02:23:03.045Z,51.60
2022-09-20T02:25:29.459Z,51.70
2022-09-20T02:30:22.922Z,52.00
2022-09-20T02:32:49.329Z,52.40
2022-09-20T02:35:15.749Z,52.00
2022-09-20T02:37:42.142Z,51.80
2022-09-20T02:40:08.605Z,51.90
2022-09-20T02:42:35.073Z,52.10
2022-09-20T02:45:01.475Z,51.80
2022-09-20T02:47:27.872Z,51.70
2022-09-20T02:49:54.282Z,51.80
2022-09-20T02:52:20.682Z,52.00
2022-09-20T02:54:47.079Z,51.50
2022-09-20T02:57:13.497Z,51.30
2022-09-20T02:59:39.893Z,51.40
2022-09-20T03:02:06.487Z,51.70
2022-09-20T03:04:32.896Z,51.80
2022-09-20T03:06:59.300Z,51.40
2022-09-20T03:09:25.696Z,51.10
2022-09-20T03:11:52.088Z,50.50
2022-09-20T03:14:18.485Z,51.00
2022-09-20T03:16:47.593Z,51.50
2022-09-20T03:19:17.811Z,51.10
2022-09-20T03:24:11.164Z,51.30
2022-09-20T03:26:37.583Z,51.50
2022-09-20T03:31:30.935Z,51.90
2022-09-20T03:33:57.383Z,52.30
2022-09-20T03:36:23.793Z,52.50
2022-09-20T03:38:50.189Z,51.20
2022-09-20T03:43:43.499Z,51.30
2022-09-20T03:46:09.954Z,51.00
2022-09-20T03:48:36.393Z,51.30
2022-09-20T03:51:02.818Z,51.50
2022-09-20T03:53:29.231Z,51.20
2022-09-20T03:55:55.650Z,51.90
2022-09-20T03:58:22.050Z,51.80
2022-09-20T04:00:48.498Z,51.90
2022-09-20T04:03:14.953Z,51.30
2022-09-20T04:05:41.357Z,51.90
2022-09-20T04:08:07.766Z,51.30
2022-09-20T04:10:34.165Z,51.90
2022-09-20T04:13:00.589Z,51.30
2022-09-20T04:15:26.994Z,51.80
2022-09-20T04:17:53.396Z,51.90
2022-09-20T04:20:19.809Z,51.90
2022-09-20T04:22:46.258Z,51.30
2022-09-20T04:25:12.664Z,51.30
2022-09-20T04:27:39.081Z,51.90
2022-09-20T04:30:05.505Z,51.80
2022-09-20T04:32:31.918Z,51.30
2022-09-20T04:34:58.322Z,51.90
2022-09-20T04:37:24.730Z,51.90
2022-09-20T04:39:51.155Z,51.10
2022-09-20T04:42:17.558Z,51.20
2022-09-20T04:44:43.963Z,51.80
2022-09-20T04:47:10.366Z,51.80
2022-09-20T04:49:36.767Z,51.60
2022-09-20T04:52:03.182Z,51.20
2022-09-20T04:54:29.593Z,51.20
2022-09-20T04:56:55.980Z,51.70
2022-09-20T04:59:22.382Z,51.80
2022-09-20T05:01:48.801Z,51.30
2022-09-20T05:04:15.231Z,51.10
2022-09-20T05:06:41.648Z,51.80
2022-09-20T05:09:08.224Z,51.20
2022-09-20T05:11:34.648Z,52.00
2022-09-20T05:14:01.035Z,51.50
2022-09-20T05:16:27.498Z,51.80
2022-09-20T05:18:53.995Z,51.90
2022-09-20T05:21:20.397Z,51.80
2022-09-20T05:23:46.811Z,51.40
2022-09-20T05:26:13.204Z,52.00
2022-09-20T05:28:39.611Z,51.80
2022-09-20T05:31:06.010Z,51.80
2022-09-20T05:33:32.408Z,51.40
2022-09-20T05:35:58.799Z,51.30
2022-09-20T05:38:25.260Z,51.90
2022-09-20T05:40:51.725Z,52.10
2022-09-20T05:43:18.148Z,51.60
2022-09-20T05:45:44.642Z,52.10
2022-09-20T05:48:11.050Z,51.50
2022-09-20T05:50:37.469Z,51.50
2022-09-20T05:53:03.863Z,51.20
2022-09-20T05:55:30.279Z,51.80
2022-09-20T05:57:56.690Z,51.60
2022-09-20T06:00:23.084Z,51.80
2022-09-20T06:02:49.478Z,51.20
2022-09-20T06:05:15.872Z,51.90
2022-09-20T06:07:42.276Z,51.90
2022-09-20T06:10:08.737Z,51.30
2022-09-20T06:12:35.165Z,51.40
2022-09-20T06:15:01.576Z,51.80
2022-09-20T06:17:27.982Z,51.90
2022-09-20T06:19:54.375Z,51.90
2022-09-20T06:22:20.788Z,51.30
2022-09-20T06:24:47.219Z,51.90
2022-09-20T06:27:13.628Z,51.80
2022-09-20T06:29:40.022Z,51.40
2022-09-20T06:32:06.416Z,51.90
2022-09-20T06:34:32.832Z,51.40
2022-09-20T06:36:59.245Z,51.20
2022-09-20T06:39:25.645Z,51.90
2022-09-20T06:41:52.056Z,51.80
2022-09-20T06:44:18.496Z,51.20
2022-09-20T06:46:44.913Z,51.80
2022-09-20T06:49:11.310Z,51.80
2022-09-20T06:51:37.701Z,51.30
2022-09-20T06:54:04.140Z,51.30
2022-09-20T06:56:30.547Z,51.90
2022-09-20T06:58:56.969Z,51.20
2022-09-20T07:01:30.126Z,51.80
2022-09-20T07:03:57.192Z,51.00
2022-09-20T07:06:23.589Z,51.60
2022-09-20T07:08:50.009Z,51.50
2022-09-20T07:11:16.414Z,51.30
2022-09-20T07:13:42.941Z,51.00
2022-09-20T07:16:09.393Z,51.50
2022-09-20T07:18:35.853Z,51.50
2022-09-20T07:21:02.249Z,51.50
2022-09-20T07:23:28.648Z,50.90
2022-09-20T07:25:55.041Z,51.50
2022-09-20T07:28:21.476Z,51.50
2022-09-20T07:30:47.889Z,51.60
2022-09-20T07:33:14.304Z,51.00
2022-09-20T07:35:40.703Z,51.60
2022-09-20T07:38:07.111Z,51.50
2022-09-20T07:40:33.530Z,51.60
2022-09-20T07:42:59.961Z,51.10
2022-09-20T07:45:26.351Z,51.70
2022-09-20T07:47:52.768Z,51.60
2022-09-20T07:50:19.168Z,51.80
2022-09-20T07:52:45.580Z,51.20
2022-09-20T07:55:11.985Z,51.10
2022-09-20T07:57:38.404Z,51.70
2022-09-20T08:00:04.809Z,51.20
2022-09-20T08:02:31.221Z,51.10
2022-09-20T08:04:57.673Z,51.60
2022-09-20T08:07:24.139Z,51.60
2022-09-20T08:09:50.559Z,51.10
2022-09-20T08:15:03.345Z,51.50
2022-09-20T08:17:29.744Z,51.00
2022-09-20T08:19:56.155Z,51.50
2022-09-20T08:22:22.558Z,51.00
2022-09-20T08:24:48.966Z,51.00
2022-09-20T08:27:15.373Z,51.50
2022-09-20T08:29:41.773Z,51.60
2022-09-20T08:32:08.184Z,51.10
2022-09-20T08:34:34.582Z,51.10
2022-09-20T08:37:00.976Z,51.70
2022-09-20T08:42:13.755Z,51.60
2022-09-20T08:44:45.461Z,51.10
2022-09-20T08:47:12.124Z,51.70
2022-09-20T08:49:38.515Z,51.70
2022-09-20T08:52:10.199Z,51.80
2022-09-20T08:54:36.976Z,51.10
2022-09-20T08:57:03.397Z,51.10
2022-09-20T08:59:29.810Z,51.70
2022-09-20T09:01:56.277Z,51.70
2022-09-20T09:04:22.754Z,51.80
2022-09-20T09:06:49.149Z,51.10
2022-09-20T09:09:15.555Z,51.60
2022-09-20T09:11:45.746Z,51.60
2022-09-20T09:14:12.476Z,51.60
2022-09-20T09:16:39.112Z,51.00
2022-09-20T09:19:05.715Z,51.50
2022-09-20T09:21:32.210Z,51.60
2022-09-20T09:23:58.635Z,51.50
2022-09-20T09:26:25.056Z,51.20
2022-09-20T09:28:51.481Z,51.70
2022-09-20T09:31:17.926Z,51.50
2022-09-20T09:33:44.352Z,51.60
2022-09-20T09:36:10.757Z,51.00
2022-09-20T09:38:37.161Z,51.60
2022-09-20T09:41:03.573Z,51.60
2022-09-20T09:43:30.164Z,51.70
2022-09-20T09:45:56.806Z,51.10
2022-09-20T09:48:23.224Z,51.60
2022-09-20T09:50:49.645Z,51.70
2022-09-20T09:53:16.067Z,51.60
2022-09-20T09:55:42.499Z,51.60
2022-09-20T09:58:08.932Z,51.10
2022-09-20T10:00:35.340Z,51.50
2022-09-20T10:03:01.812Z,51.60
2022-09-20T10:05:28.251Z,50.60
2022-09-20T10:07:54.674Z,50.50
2022-09-20T10:10:21.074Z,50.90
2022-09-20T10:12:47.480Z,50.60
2022-09-20T10:15:13.884Z,50.50
2022-09-20T10:17:40.285Z,50.00
2022-09-20T10:20:06.689Z,50.60
2022-09-20T10:22:33.119Z,50.30
2022-09-20T10:24:59.528Z,50.50
2022-09-20T10:27:25.956Z,49.90
2022-09-20T10:29:52.389Z,50.70
2022-09-20T10:32:18.810Z,49.70
2022-09-20T10:34:45.217Z,50.40
2022-09-20T10:37:11.636Z,50.10
2022-09-20T10:39:38.032Z,50.70
2022-09-20T10:42:04.453Z,50.90
2022-09-20T10:44:30.853Z,50.80
2022-09-20T10:46:57.339Z,50.40
2022-09-20T10:49:23.866Z,51.10
2022-09-20T10:51:50.303Z,51.20
2022-09-20T10:54:16.693Z,51.20
2022-09-20T10:56:43.101Z,50.80
2022-09-20T10:59:09.522Z,51.30
2022-09-20T11:01:35.997Z,51.10
2022-09-20T11:04:02.532Z,51.20
2022-09-20T11:06:28.963Z,50.80
2022-09-20T11:08:55.372Z,51.30
2022-09-20T11:11:21.767Z,51.50
2022-09-20T11:13:48.173Z,51.30
2022-09-20T11:16:14.623Z,50.70
2022-09-20T11:18:41.137Z,51.30
2022-09-20T11:21:07.559Z,51.20
2022-09-20T11:23:33.973Z,51.40
2022-09-20T11:26:00.375Z,50.90
2022-09-20T11:28:26.794Z,51.30
2022-09-20T11:30:53.193Z,51.40
2022-09-20T11:33:19.598Z,51.80
2022-09-20T11:35:46.007Z,50.70
2022-09-20T11:38:12.424Z,50.70
2022-09-20T11:40:38.879Z,51.30
2022-09-20T11:43:05.308Z,51.40
2022-09-20T11:45:31.775Z,51.50
2022-09-20T11:47:58.209Z,50.80
2022-09-20T11:50:24.609Z,51.40
2022-09-20T11:52:51.023Z,51.30
2022-09-20T11:55:17.443Z,51.40
2022-09-20T11:57:43.839Z,50.90
2022-09-20T12:00:10.330Z,51.40
2022-09-20T12:02:36.859Z,51.30
2022-09-20T12:05:03.342Z,51.30
2022-09-20T12:07:29.765Z,50.90
2022-09-20T12:09:56.190Z,51.30
2022-09-20T12:12:22.616Z,51.50
2022-09-20T12:14:49.020Z,51.60
2022-09-20T12:17:15.422Z,51.50
2022-09-20T12:19:41.842Z,51.60
2022-09-20T12:22:08.248Z,51.90
2022-09-20T12:24:34.652Z,51.50
2022-09-20T12:27:01.061Z,50.90
2022-09-20T12:29:27.495Z,51.30
2022-09-20T12:31:53.919Z,51.50
2022-09-20T12:34:20.390Z,51.40
2022-09-20T12:36:46.796Z,50.90
2022-09-20T12:39:17.647Z,51.40
2022-09-20T12:41:47.197Z,51.30
2022-09-20T12:44:13.613Z,51.30
2022-09-20T12:46:41.161Z,50.80
2022-09-20T12:49:07.650Z,51.30
2022-09-20T12:51:34.130Z,51.50
2022-09-20T12:54:00.541Z,50.70
2022-09-20T12:56:26.948Z,50.80
2022-09-20T12:58:53.434Z,51.30
2022-09-20T13:01:19.950Z,51.30
2022-09-20T13:03:46.436Z,51.30
2022-09-20T13:06:12.871Z,50.70
2022-09-20T13:08:39.308Z,51.30
2022-09-20T13:11:05.749Z,51.90
2022-09-20T13:13:32.155Z,51.30
2022-09-20T13:15:58.611Z,50.80
2022-09-20T13:18:25.081Z,51.40
2022-09-20T13:20:51.491Z,51.50
2022-09-20T13:23:17.889Z,51.40
2022-09-20T13:25:44.292Z,51.30
2022-09-20T13:28:10.705Z,50.90
2022-09-20T13:30:37.095Z,50.70
2022-09-20T13:33:03.509Z,51.60
2022-09-20T13:35:29.900Z,51.50
2022-09-20T13:37:56.337Z,50.90
2022-09-20T13:40:22.785Z,51.50
2022-09-20T13:42:49.211Z,51.60
2022-09-20T13:45:15.634Z,51.60
2022-09-20T13:47:42.039Z,51.10
2022-09-20T13:50:08.460Z,51.70
2022-09-20T13:52:34.873Z,51.70
2022-09-20T13:55:01.295Z,51.50
2022-09-20T13:57:27.713Z,51.00
2022-09-20T13:59:54.122Z,51.50
2022-09-20T14:02:20.572Z,51.70
2022-09-20T14:04:47.028Z,51.70
2022-09-20T14:07:13.438Z,51.60
2022-09-20T14:09:39.841Z,51.90
2022-09-20T14:12:06.244Z,51.70
2022-09-20T14:14:32.646Z,51.50
2022-09-20T14:16:59.104Z,51.10
2022-09-20T14:19:25.537Z,51.70
2022-09-20T14:21:51.954Z,51.70
2022-09-20T14:24:18.367Z,51.80
2022-09-20T14:26:44.778Z,51.10
2022-09-20T14:29:11.215Z,51.90
2022-09-20T14:31:37.638Z,51.70
2022-09-20T14:34:04.072Z,51.90
2022-09-20T14:36:30.538Z,51.20
2022-09-20T14:38:56.947Z,51.60
2022-09-20T14:41:23.379Z,51.80
2022-09-20T14:43:49.789Z,51.80
2022-09-20T14:46:16.202Z,51.20
2022-09-20T14:48:42.593Z,51.80
2022-09-20T14:51:09.030Z,51.70
2022-09-20T14:53:35.425Z,51.70
2022-09-20T14:56:01.872Z,51.30
2022-09-20T14:58:28.296Z,51.30
2022-09-20T15:00:54.787Z,51.80
2022-09-20T15:03:21.210Z,51.80
2022-09-20T15:05:47.637Z,51.40
2022-09-20T15:08:14.049Z,50.70
2022-09-20T15:10:40.483Z,50.80
2022-09-20T15:13:06.897Z,51.30
2022-09-20T15:15:33.293Z,50.60
2022-09-20T15:17:59.704Z,50.50
2022-09-20T15:20:26.095Z,51.10
2022-09-20T15:22:52.491Z,50.60
2022-09-20T15:25:18.921Z,51.10
2022-09-20T15:27:45.341Z,50.90
2022-09-20T15:30:11.763Z,51.50
2022-09-20T15:32:38.163Z,51.20
2022-09-20T15:35:04.613Z,51.30
2022-09-20T15:37:31.022Z,50.80
2022-09-20T15:39:57.461Z,51.30
2022-09-20T15:42:23.975Z,51.50
2022-09-20T15:44:50.417Z,51.60
2022-09-20T15:47:16.856Z,51.00
2022-09-20T15:49:43.297Z,51.40
2022-09-20T15:52:09.689Z,51.50
2022-09-20T15:54:36.097Z,51.60
2022-09-20T15:57:02.495Z,51.00
2022-09-20T15:59:28.903Z,51.50
2022-09-20T16:01:55.378Z,51.50
2022-09-20T16:04:21.848Z,51.50
2022-09-20T16:06:48.265Z,51.10
2022-09-20T16:09:14.671Z,51.70
2022-09-20T16:11:41.094Z,51.50
2022-09-20T16:14:07.527Z,51.60
2022-09-20T16:16:37.614Z,51.50
2022-09-20T16:19:06.776Z,52.10
2022-09-20T16:21:33.276Z,51.70
2022-09-20T16:23:59.669Z,51.70
2022-09-20T16:26:26.073Z,51.60
2022-09-20T16:28:52.473Z,52.10
2022-09-20T16:31:18.886Z,52.10
2022-09-20T16:33:45.320Z,52.10
2022-09-20T16:36:11.714Z,52.40
2022-09-20T16:38:38.113Z,52.00
2022-09-20T16:41:04.512Z,52.50
2022-09-20T16:43:30.896Z,52.30
2022-09-20T16:45:57.398Z,52.60
2022-09-20T16:48:23.828Z,51.80
2022-09-20T16:50:50.250Z,52.70
2022-09-20T16:53:16.658Z,52.70
2022-09-20T16:55:43.065Z,52.60
2022-09-20T16:58:09.461Z,52.20
2022-09-20T17:00:35.897Z,52.60
2022-09-20T17:03:02.296Z,52.60
2022-09-20T17:05:28.717Z,52.40
2022-09-20T17:07:55.121Z,51.90
2022-09-20T17:10:21.555Z,52.50
2022-09-20T17:12:47.949Z,52.70
2022-09-20T17:15:14.371Z,52.60
2022-09-20T17:17:40.790Z,52.20
2022-09-20T17:20:07.210Z,52.70
2022-09-20T17:22:33.609Z,52.60
2022-09-20T17:25:00.009Z,52.70
2022-09-20T17:27:26.422Z,52.30
2022-09-20T17:29:52.825Z,52.90
2022-09-20T17:32:19.302Z,52.90
2022-09-20T17:34:45.777Z,52.90
2022-09-20T17:37:12.182Z,52.40
2022-09-20T17:39:38.572Z,52.90
2022-09-20T17:42:04.965Z,52.50
2022-09-20T17:44:31.376Z,51.40
2022-09-20T17:46:57.863Z,52.10
2022-09-20T17:49:24.328Z,52.60
2022-09-20T17:51:50.733Z,51.90
2022-09-20T17:54:17.154Z,52.50
2022-09-20T17:56:43.620Z,52.20
2022-09-20T17:59:10.070Z,52.10
2022-09-20T18:01:36.472Z,52.70
2022-09-20T18:04:02.864Z,52.60
2022-09-20T18:06:29.377Z,51.90
2022-09-20T18:08:55.773Z,51.90
2022-09-20T18:11:22.205Z,52.40
2022-09-20T18:13:48.598Z,52.40
2022-09-20T18:16:15.021Z,52.40
2022-09-20T18:18:41.481Z,52.00
2022-09-20T18:21:07.874Z,52.50
2022-09-20T18:23:34.292Z,52.40
2022-09-20T18:26:00.686Z,51.90
2022-09-20T18:28:27.080Z,51.80
2022-09-20T18:30:53.469Z,52.50
2022-09-20T18:33:19.865Z,52.50
2022-09-20T18:35:46.264Z,52.60
2022-09-20T18:38:12.657Z,52.10
2022-09-20T18:40:39.136Z,52.60
2022-09-20T18:43:05.565Z,52.50
2022-09-20T18:45:31.975Z,51.90
2022-09-20T18:47:58.367Z,52.00
2022-09-20T18:50:24.786Z,52.10
2022-09-20T18:52:51.186Z,52.80
2022-09-20T18:55:17.606Z,52.80
2022-09-20T18:57:44.009Z,52.20
2022-09-20T19:00:10.438Z,52.60
2022-09-20T19:02:36.844Z,52.50
2022-09-20T19:05:03.251Z,52.70
2022-09-20T19:07:29.646Z,52.20
2022-09-20T19:09:56.042Z,52.70
2022-09-20T19:12:22.472Z,52.60
2022-09-20T19:14:48.882Z,52.80
2022-09-20T19:17:15.308Z,52.10
2022-09-20T19:19:41.727Z,52.60
2022-09-20T19:22:08.135Z,52.60
2022-09-20T19:24:34.553Z,52.50
2022-09-20T19:27:00.944Z,51.80
2022-09-20T19:29:27.365Z,52.40
2022-09-20T19:31:53.773Z,52.50
2022-09-20T19:34:20.189Z,52.50
2022-09-20T19:36:46.572Z,52.10
2022-09-20T19:39:12.966Z,52.60
2022-09-20T19:41:39.371Z,52.50
2022-09-20T19:44:05.780Z,52.40
2022-09-20T19:46:32.243Z,51.80
2022-09-20T19:48:58.699Z,52.40
2022-09-20T19:51:25.120Z,52.50
2022-09-20T19:53:51.520Z,52.50
2022-09-20T19:56:17.917Z,52.50
2022-09-20T19:58:44.329Z,52.00
2022-09-20T20:01:10.774Z,52.50
2022-09-20T20:03:37.173Z,52.60
2022-09-20T20:06:07.915Z,52.70
2022-09-20T20:08:34.713Z,52.20
2022-09-20T20:11:01.118Z,52.20
2022-09-20T20:13:27.549Z,52.80
2022-09-20T20:15:54.002Z,52.80
2022-09-20T20:18:20.435Z,52.70
2022-09-20T20:20:46.834Z,52.10
2022-09-20T20:23:13.225Z,52.60
2022-09-20T20:25:39.651Z,52.60
2022-09-20T20:28:06.045Z,52.00
2022-09-20T20:30:32.485Z,52.50
2022-09-20T20:32:58.887Z,52.50
2022-09-20T20:35:25.300Z,52.50
2022-09-20T20:37:51.784Z,52.00
2022-09-20T20:40:18.291Z,52.50
2022-09-20T20:42:44.813Z,52.00
2022-09-20T20:45:11.210Z,52.40
2022-09-20T20:47:37.634Z,51.90
2022-09-20T20:50:04.025Z,51.80
2022-09-20T20:52:30.485Z,52.40
2022-09-20T20:54:56.882Z,52.30
2022-09-20T20:57:23.293Z,51.80
2022-09-20T20:59:49.707Z,51.90
2022-09-20T21:02:16.118Z,52.40
2022-09-20T21:04:42.543Z,52.40
2022-09-20T21:07:08.944Z,51.80
2022-09-20T21:09:35.365Z,52.40
2022-09-20T21:12:01.779Z,52.30
2022-09-20T21:14:28.205Z,52.40
2022-09-20T21:16:54.625Z,51.70
2022-09-20T21:19:21.061Z,52.30
2022-09-20T21:21:47.455Z,52.30
2022-09-20T21:24:13.860Z,52.30
2022-09-20T21:26:40.262Z,51.70
2022-09-20T21:29:06.676Z,52.20
2022-09-20T21:31:33.204Z,52.30
2022-09-20T21:33:59.632Z,52.20
2022-09-20T21:36:26.025Z,51.70
2022-09-20T21:38:52.416Z,52.30
2022-09-20T21:41:18.809Z,52.20
2022-09-20T21:43:45.205Z,52.30
2022-09-20T21:46:11.622Z,52.30
2022-09-20T21:48:38.093Z,51.80
2022-09-20T21:51:04.485Z,52.30
2022-09-20T21:53:30.884Z,52.20
2022-09-20T21:55:57.285Z,51.70
2022-09-20T21:58:23.697Z,51.80
2022-09-20T22:00:50.091Z,52.30
2022-09-20T22:03:16.520Z,51.60
2022-09-20T22:05:42.909Z,52.30
2022-09-20T22:08:09.320Z,51.70
2022-09-20T22:10:35.720Z,51.70
2022-09-20T22:13:02.133Z,52.20
2022-09-20T22:15:28.585Z,52.20
2022-09-20T22:17:55.029Z,51.70
2022-09-20T22:20:21.428Z,52.20
2022-09-20T22:22:47.825Z,52.30
2022-09-20T22:25:14.230Z,51.70
2022-09-20T22:27:40.637Z,52.10
2022-09-20T22:30:07.060Z,52.20
2022-09-20T22:32:33.457Z,51.70
2022-09-20T22:34:59.866Z,52.10
2022-09-20T22:37:26.257Z,51.60
2022-09-20T22:39:52.674Z,51.50
2022-09-20T22:42:19.060Z,52.10
2022-09-20T22:44:45.470Z,52.10
2022-09-20T22:47:11.876Z,51.50
2022-09-20T22:49:38.268Z,52.80
2022-09-20T22:52:04.666Z,51.90
2022-09-20T22:54:31.057Z,51.50
2022-09-20T22:56:57.456Z,51.50
2022-09-20T22:59:23.848Z,52.10
2022-09-20T23:01:50.240Z,51.50
2022-09-20T23:04:16.647Z,52.10
2022-09-20T23:06:43.066Z,51.50
2022-09-20T23:09:09.474Z,52.10
2022-09-20T23:11:35.873Z,51.50
2022-09-20T23:14:02.268Z,52.00
2022-09-20T23:16:28.712Z,51.50
2022-09-20T23:18:55.156Z,51.50
2022-09-20T23:21:21.549Z,52.00
2022-09-20T23:23:47.947Z,51.90
2022-09-20T23:26:14.339Z,52.00
2022-09-20T23:28:40.732Z,51.40
2022-09-20T23:31:07.165Z,52.60
2022-09-20T23:33:33.570Z,51.80
2022-09-20T23:35:59.984Z,51.90
2022-09-20T23:38:26.402Z,51.40
2022-09-20T23:40:52.821Z,52.00
2022-09-20T23:43:19.216Z,51.40
2022-09-20T23:45:45.663Z,51.90
2022-09-20T23:48:12.088Z,51.40
2022-09-20T23:50:38.490Z,51.30
2022-09-20T23:53:04.879Z,51.80
2022-09-20T23:55:31.314Z,51.90
2022-09-20T23:57:57.746Z,51.20
